sensor_id;sensor_type;location;lat;lon;timestamp;pressure;altitude;pressure_sealevel;temperature;humidity
25560;BME280;13450;49.374;8.584;2023-05-03T00:01:09;101451.91;;;9.07;nan
25560;BME280;13450;49.374;8.584;2023-05-03T00:03:34;101458.41;;;9.04;nan
25560;BME280;13450;49.374;8.584;2023-05-03T00:06:10;101455.50;;;8.97;nan
25560;BME280;13450;49.374;8.584;2023-05-03T00:08:36;101447.81;;;8.94;nan
25560;BME280;13450;49.374;8.584;2023-05-03T00:11:01;101452.75;;;8.89;nan
25560;BME280;13450;49.374;8.584;2023-05-03T00:13:29;101448.00;;;8.83;nan
25560;BME280;13450;49.374;8.584;2023-05-03T00:15:54;101444.66;;;8.81;nan
25560;BME280;13450;49.374;8.584;2023-05-03T00:18:19;101449.59;;;8.75;nan
25560;BME280;13450;49.374;8.584;2023-05-03T00:20:45;101454.38;;;8.72;nan
25560;BME280;13450;49.374;8.584;2023-05-03T00:23:10;101454.69;;;8.69;nan
25560;BME280;13450;49.374;8.584;2023-05-03T00:25:35;101452.31;;;8.66;nan
25560;BME280;13450;49.374;8.584;2023-05-03T00:28:01;101448.78;;;8.65;nan
25560;BME280;13450;49.374;8.584;2023-05-03T00:30:26;101448.25;;;8.61;nan
25560;BME280;13450;49.374;8.584;2023-05-03T00:32:51;101454.00;;;8.57;nan
25560;BME280;13450;49.374;8.584;2023-05-03T00:35:17;101453.59;;;8.51;nan
25560;BME280;13450;49.374;8.584;2023-05-03T00:37:44;101450.22;;;8.49;nan
25560;BME280;13450;49.374;8.584;2023-05-03T00:40:11;101451.38;;;8.47;nan
25560;BME280;13450;49.374;8.584;2023-05-03T00:42:37;101442.78;;;8.43;nan
25560;BME280;13450;49.374;8.584;2023-05-03T00:45:03;101443.25;;;8.38;nan
25560;BME280;13450;49.374;8.584;2023-05-03T00:47:32;101450.53;;;8.36;nan
25560;BME280;13450;49.374;8.584;2023-05-03T00:49:59;101443.81;;;8.32;nan
25560;BME280;13450;49.374;8.584;2023-05-03T00:52:25;101440.19;;;8.33;nan
25560;BME280;13450;49.374;8.584;2023-05-03T00:54:51;101446.09;;;8.27;nan
25560;BME280;13450;49.374;8.584;2023-05-03T00:57:16;101437.81;;;8.20;nan
25560;BME280;13450;49.374;8.584;2023-05-03T00:59:42;101439.81;;;8.18;nan
25560;BME280;13450;49.374;8.584;2023-05-03T01:02:08;101439.09;;;8.16;nan
25560;BME280;13450;49.374;8.584;2023-05-03T01:04:33;101423.41;;;8.13;nan
25560;BME280;13450;49.374;8.584;2023-05-03T01:07:26;101429.31;;;8.07;nan
25560;BME280;13450;49.374;8.584;2023-05-03T01:09:58;101428.47;;;8.06;nan
25560;BME280;13450;49.374;8.584;2023-05-03T01:12:44;101426.38;;;8.00;nan
25560;BME280;13450;49.374;8.584;2023-05-03T01:15:24;101427.50;;;7.97;nan
25560;BME280;13450;49.374;8.584;2023-05-03T01:17:59;101419.09;;;7.92;nan
25560;BME280;13450;49.374;8.584;2023-05-03T01:20:29;101417.56;;;7.90;nan
25560;BME280;13450;49.374;8.584;2023-05-03T01:25:23;101415.34;;;7.85;nan
25560;BME280;13450;49.374;8.584;2023-05-03T01:27:51;101410.97;;;7.84;nan
25560;BME280;13450;49.374;8.584;2023-05-03T01:30:18;101402.56;;;7.79;nan
25560;BME280;13450;49.374;8.584;2023-05-03T01:38:12;101410.44;;;7.70;nan
25560;BME280;13450;49.374;8.584;2023-05-03T01:40:49;101413.41;;;7.67;nan
25560;BME280;13450;49.374;8.584;2023-05-03T01:43:16;101424.06;;;7.67;nan
25560;BME280;13450;49.374;8.584;2023-05-03T01:45:42;101425.31;;;7.63;nan
25560;BME280;13450;49.374;8.584;2023-05-03T01:48:15;101415.09;;;7.58;nan
25560;BME280;13450;49.374;8.584;2023-05-03T01:50:42;101416.47;;;7.53;nan
25560;BME280;13450;49.374;8.584;2023-05-03T01:53:07;101421.81;;;7.53;nan
25560;BME280;13450;49.374;8.584;2023-05-03T01:55:33;101417.47;;;7.52;nan
25560;BME280;13450;49.374;8.584;2023-05-03T01:58:00;101416.06;;;7.48;nan
25560;BME280;13450;49.374;8.584;2023-05-03T02:00:26;101415.94;;;7.49;nan
25560;BME280;13450;49.374;8.584;2023-05-03T02:02:51;101414.66;;;7.43;nan
25560;BME280;13450;49.374;8.584;2023-05-03T02:05:17;101420.13;;;7.52;nan
25560;BME280;13450;49.374;8.584;2023-05-03T02:07:42;101411.59;;;7.48;nan
25560;BME280;13450;49.374;8.584;2023-05-03T02:10:10;101407.66;;;7.52;nan
25560;BME280;13450;49.374;8.584;2023-05-03T02:12:39;101419.31;;;7.51;nan
25560;BME280;13450;49.374;8.584;2023-05-03T02:15:06;101420.25;;;7.50;nan
25560;BME280;13450;49.374;8.584;2023-05-03T02:17:31;101424.47;;;7.53;nan
25560;BME280;13450;49.374;8.584;2023-05-03T02:19:56;101419.84;;;7.55;nan
25560;BME280;13450;49.374;8.584;2023-05-03T02:22:22;101421.66;;;7.54;nan
25560;BME280;13450;49.374;8.584;2023-05-03T02:24:47;101419.13;;;7.53;nan
25560;BME280;13450;49.374;8.584;2023-05-03T02:27:13;101413.13;;;7.51;nan
25560;BME280;13450;49.374;8.584;2023-05-03T02:29:39;101423.22;;;7.47;nan
25560;BME280;13450;49.374;8.584;2023-05-03T02:32:04;101419.84;;;7.45;nan
25560;BME280;13450;49.374;8.584;2023-05-03T02:34:31;101416.63;;;7.41;nan
25560;BME280;13450;49.374;8.584;2023-05-03T02:37:00;101419.31;;;7.41;nan
25560;BME280;13450;49.374;8.584;2023-05-03T02:39:26;101422.09;;;7.40;nan
25560;BME280;13450;49.374;8.584;2023-05-03T02:41:51;101428.56;;;7.37;nan
25560;BME280;13450;49.374;8.584;2023-05-03T02:44:16;101432.34;;;7.35;nan
25560;BME280;13450;49.374;8.584;2023-05-03T02:46:42;101434.88;;;7.36;nan
25560;BME280;13450;49.374;8.584;2023-05-03T02:49:10;101431.06;;;7.39;nan
25560;BME280;13450;49.374;8.584;2023-05-03T02:51:35;101429.94;;;7.41;nan
25560;BME280;13450;49.374;8.584;2023-05-03T02:54:00;101437.81;;;7.43;nan
25560;BME280;13450;49.374;8.584;2023-05-03T02:56:26;101427.72;;;7.46;nan
25560;BME280;13450;49.374;8.584;2023-05-03T02:58:52;101438.38;;;7.46;nan
25560;BME280;13450;49.374;8.584;2023-05-03T03:01:18;101426.31;;;7.52;nan
25560;BME280;13450;49.374;8.584;2023-05-03T03:03:43;101434.16;;;7.54;nan
25560;BME280;13450;49.374;8.584;2023-05-03T03:06:09;101440.19;;;7.56;nan
25560;BME280;13450;49.374;8.584;2023-05-03T03:08:40;101438.38;;;7.56;nan
25560;BME280;13450;49.374;8.584;2023-05-03T03:11:06;101435.56;;;7.58;nan
25560;BME280;13450;49.374;8.584;2023-05-03T03:13:31;101440.59;;;7.61;nan
25560;BME280;13450;49.374;8.584;2023-05-03T03:15:57;101438.66;;;7.63;nan
25560;BME280;13450;49.374;8.584;2023-05-03T03:18:22;101443.84;;;7.65;nan
25560;BME280;13450;49.374;8.584;2023-05-03T03:20:47;101445.38;;;7.67;nan
25560;BME280;13450;49.374;8.584;2023-05-03T03:23:13;101440.72;;;7.69;nan
25560;BME280;13450;49.374;8.584;2023-05-03T03:25:41;101442.53;;;7.69;nan
25560;BME280;13450;49.374;8.584;2023-05-03T03:28:06;101443.66;;;7.66;nan
25560;BME280;13450;49.374;8.584;2023-05-03T03:30:33;101435.00;;;7.64;nan
25560;BME280;13450;49.374;8.584;2023-05-03T03:33:00;101437.38;;;7.67;nan
25560;BME280;13450;49.374;8.584;2023-05-03T03:35:27;101432.47;;;7.63;nan
25560;BME280;13450;49.374;8.584;2023-05-03T03:37:52;101431.78;;;7.61;nan
25560;BME280;13450;49.374;8.584;2023-05-03T03:40:17;101436.25;;;7.60;nan
25560;BME280;13450;49.374;8.584;2023-05-03T03:42:43;101433.47;;;7.62;nan
25560;BME280;13450;49.374;8.584;2023-05-03T03:45:11;101436.13;;;7.62;nan
25560;BME280;13450;49.374;8.584;2023-05-03T03:47:37;101427.56;;;7.58;nan
25560;BME280;13450;49.374;8.584;2023-05-03T03:50:02;101431.91;;;7.59;nan
25560;BME280;13450;49.374;8.584;2023-05-03T03:52:30;101433.31;;;7.53;nan
25560;BME280;13450;49.374;8.584;2023-05-03T03:54:56;101429.66;;;7.54;nan
25560;BME280;13450;49.374;8.584;2023-05-03T03:57:21;101430.50;;;7.55;nan
25560;BME280;13450;49.374;8.584;2023-05-03T03:59:49;101429.09;;;7.51;nan
25560;BME280;13450;49.374;8.584;2023-05-03T04:02:15;101421.69;;;7.44;nan
25560;BME280;13450;49.374;8.584;2023-05-03T04:04:40;101426.31;;;7.42;nan
25560;BME280;13450;49.374;8.584;2023-05-03T04:07:07;101426.03;;;7.36;nan
25560;BME280;13450;49.374;8.584;2023-05-03T04:09:33;101422.81;;;7.32;nan
25560;BME280;13450;49.374;8.584;2023-05-03T04:11:58;101427.53;;;7.28;nan
25560;BME280;13450;49.374;8.584;2023-05-03T04:14:24;101426.31;;;7.23;nan
25560;BME280;13450;49.374;8.584;2023-05-03T04:16:50;101422.38;;;7.17;nan
25560;BME280;13450;49.374;8.584;2023-05-03T04:19:15;101426.16;;;7.14;nan
25560;BME280;13450;49.374;8.584;2023-05-03T04:21:42;101428.25;;;7.11;nan
25560;BME280;13450;49.374;8.584;2023-05-03T04:24:08;101427.41;;;7.10;nan
25560;BME280;13450;49.374;8.584;2023-05-03T04:26:35;101434.66;;;7.08;nan
25560;BME280;13450;49.374;8.584;2023-05-03T04:29:00;101433.00;;;7.07;nan
25560;BME280;13450;49.374;8.584;2023-05-03T04:31:25;101441.97;;;7.06;nan
25560;BME280;13450;49.374;8.584;2023-05-03T04:33:52;101437.19;;;7.00;nan
25560;BME280;13450;49.374;8.584;2023-05-03T04:36:17;101440.56;;;7.02;nan
25560;BME280;13450;49.374;8.584;2023-05-03T04:38:52;101442.22;;;7.03;nan
25560;BME280;13450;49.374;8.584;2023-05-03T04:41:17;101437.63;;;7.05;nan
25560;BME280;13450;49.374;8.584;2023-05-03T04:43:45;101443.94;;;7.04;nan
25560;BME280;13450;49.374;8.584;2023-05-03T04:46:10;101448.97;;;7.07;nan
25560;BME280;13450;49.374;8.584;2023-05-03T04:48:36;101448.97;;;7.07;nan
25560;BME280;13450;49.374;8.584;2023-05-03T04:51:01;101451.38;;;7.10;nan
25560;BME280;13450;49.374;8.584;2023-05-03T04:53:26;101453.47;;;7.16;nan
25560;BME280;13450;49.374;8.584;2023-05-03T04:55:52;101454.59;;;7.24;nan
25560;BME280;13450;49.374;8.584;2023-05-03T04:58:17;101457.56;;;7.30;nan
25560;BME280;13450;49.374;8.584;2023-05-03T05:00:45;101456.44;;;7.33;nan
25560;BME280;13450;49.374;8.584;2023-05-03T05:03:10;101443.97;;;7.33;nan
25560;BME280;13450;49.374;8.584;2023-05-03T05:05:36;101448.59;;;7.41;nan
25560;BME280;13450;49.374;8.584;2023-05-03T05:08:01;101456.00;;;7.48;nan
25560;BME280;13450;49.374;8.584;2023-05-03T05:10:26;101453.78;;;7.53;nan
25560;BME280;13450;49.374;8.584;2023-05-03T05:12:52;101446.22;;;7.58;nan
25560;BME280;13450;49.374;8.584;2023-05-03T05:15:17;101453.63;;;7.64;nan
25560;BME280;13450;49.374;8.584;2023-05-03T05:17:43;101457.97;;;7.65;nan
25560;BME280;13450;49.374;8.584;2023-05-03T05:20:08;101456.03;;;7.67;nan
25560;BME280;13450;49.374;8.584;2023-05-03T05:22:37;101458.84;;;7.66;nan
25560;BME280;13450;49.374;8.584;2023-05-03T05:25:05;101456.03;;;7.67;nan
25560;BME280;13450;49.374;8.584;2023-05-03T05:27:33;101453.78;;;7.72;nan
25560;BME280;13450;49.374;8.584;2023-05-03T05:29:58;101453.47;;;7.76;nan
25560;BME280;13450;49.374;8.584;2023-05-03T05:32:24;101455.88;;;7.79;nan
25560;BME280;13450;49.374;8.584;2023-05-03T05:34:50;101465.00;;;7.86;nan
25560;BME280;13450;49.374;8.584;2023-05-03T05:37:20;101457.41;;;7.91;nan
25560;BME280;13450;49.374;8.584;2023-05-03T05:39:45;101457.13;;;7.94;nan
25560;BME280;13450;49.374;8.584;2023-05-03T05:42:11;101454.41;;;8.04;nan
25560;BME280;13450;49.374;8.584;2023-05-03T05:44:36;101462.69;;;8.11;nan
25560;BME280;13450;49.374;8.584;2023-05-03T05:47:02;101471.09;;;8.16;nan
25560;BME280;13450;49.374;8.584;2023-05-03T05:49:27;101471.22;;;8.24;nan
25560;BME280;13450;49.374;8.584;2023-05-03T05:51:53;101476.69;;;8.33;nan
25560;BME280;13450;49.374;8.584;2023-05-03T05:54:18;101467.66;;;8.44;nan
25560;BME280;13450;49.374;8.584;2023-05-03T05:56:43;101470.72;;;8.59;nan
25560;BME280;13450;49.374;8.584;2023-05-03T05:59:08;101473.91;;;8.72;nan
25560;BME280;13450;49.374;8.584;2023-05-03T06:01:34;101471.44;;;8.89;nan
25560;BME280;13450;49.374;8.584;2023-05-03T06:04:00;101465.88;;;9.00;nan
25560;BME280;13450;49.374;8.584;2023-05-03T06:06:25;101465.97;;;9.09;nan
25560;BME280;13450;49.374;8.584;2023-05-03T06:08:51;101463.97;;;9.11;nan
25560;BME280;13450;49.374;8.584;2023-05-03T06:11:16;101464.16;;;9.09;nan
25560;BME280;13450;49.374;8.584;2023-05-03T06:13:42;101448.81;;;9.11;nan
25560;BME280;13450;49.374;8.584;2023-05-03T06:16:10;101452.41;;;9.20;nan
25560;BME280;13450;49.374;8.584;2023-05-03T06:18:35;101456.44;;;9.24;nan
25560;BME280;13450;49.374;8.584;2023-05-03T06:21:00;101456.53;;;9.33;nan
25560;BME280;13450;49.374;8.584;2023-05-03T06:23:26;101464.84;;;9.48;nan
25560;BME280;13450;49.374;8.584;2023-05-03T06:25:52;101460.34;;;9.66;nan
25560;BME280;13450;49.374;8.584;2023-05-03T06:28:17;101462.69;;;9.88;nan
25560;BME280;13450;49.374;8.584;2023-05-03T06:30:49;101460.78;;;9.98;nan
25560;BME280;13450;49.374;8.584;2023-05-03T06:33:15;101456.38;;;10.15;nan
25560;BME280;13450;49.374;8.584;2023-05-03T06:35:41;101450.00;;;10.16;nan
25560;BME280;13450;49.374;8.584;2023-05-03T06:38:07;101452.47;;;10.36;nan
25560;BME280;13450;49.374;8.584;2023-05-03T06:40:33;101458.47;;;10.56;nan
25560;BME280;13450;49.374;8.584;2023-05-03T06:42:59;101458.03;;;10.43;nan
25560;BME280;13450;49.374;8.584;2023-05-03T06:45:24;101452.00;;;10.41;nan
25560;BME280;13450;49.374;8.584;2023-05-03T06:47:50;101451.75;;;10.52;nan
25560;BME280;13450;49.374;8.584;2023-05-03T06:50:15;101449.31;;;10.41;nan
25560;BME280;13450;49.374;8.584;2023-05-03T06:52:41;101452.41;;;10.54;nan
25560;BME280;13450;49.374;8.584;2023-05-03T06:55:06;101449.97;;;10.69;nan
25560;BME280;13450;49.374;8.584;2023-05-03T06:57:32;101446.50;;;10.77;nan
25560;BME280;13450;49.374;8.584;2023-05-03T06:59:57;101445.31;;;10.80;nan
25560;BME280;13450;49.374;8.584;2023-05-03T07:02:23;101457.88;;;10.79;nan
25560;BME280;13450;49.374;8.584;2023-05-03T07:04:49;101464.03;;;11.15;nan
25560;BME280;13450;49.374;8.584;2023-05-03T07:07:15;101466.56;;;11.41;nan
25560;BME280;13450;49.374;8.584;2023-05-03T07:09:40;101462.75;;;11.60;nan
25560;BME280;13450;49.374;8.584;2023-05-03T07:12:06;101458.38;;;11.59;nan
25560;BME280;13450;49.374;8.584;2023-05-03T07:14:31;101461.38;;;11.48;nan
25560;BME280;13450;49.374;8.584;2023-05-03T07:16:57;101461.06;;;11.51;nan
25560;BME280;13450;49.374;8.584;2023-05-03T07:19:22;101461.03;;;11.59;nan
25560;BME280;13450;49.374;8.584;2023-05-03T07:21:47;101452.34;;;11.49;nan
25560;BME280;13450;49.374;8.584;2023-05-03T07:24:13;101454.38;;;11.55;nan
25560;BME280;13450;49.374;8.584;2023-05-03T07:26:40;101457.38;;;11.77;nan
25560;BME280;13450;49.374;8.584;2023-05-03T07:29:06;101453.84;;;11.93;nan
25560;BME280;13450;49.374;8.584;2023-05-03T07:31:31;101452.34;;;12.15;nan
25560;BME280;13450;49.374;8.584;2023-05-03T07:33:56;101448.59;;;12.33;nan
25560;BME280;13450;49.374;8.584;2023-05-03T07:36:22;101450.91;;;12.45;nan
25560;BME280;13450;49.374;8.584;2023-05-03T07:38:47;101451.56;;;12.55;nan
25560;BME280;13450;49.374;8.584;2023-05-03T07:41:12;101457.63;;;12.40;nan
25560;BME280;13450;49.374;8.584;2023-05-03T07:43:38;101452.25;;;12.40;nan
25560;BME280;13450;49.374;8.584;2023-05-03T07:46:03;101450.59;;;12.31;nan
25560;BME280;13450;49.374;8.584;2023-05-03T07:48:31;101448.59;;;12.41;nan
25560;BME280;13450;49.374;8.584;2023-05-03T07:50:56;101454.94;;;12.40;nan
25560;BME280;13450;49.374;8.584;2023-05-03T07:53:21;101450.19;;;12.59;nan
25560;BME280;13450;49.374;8.584;2023-05-03T07:55:51;101442.69;;;12.86;nan
25560;BME280;13450;49.374;8.584;2023-05-03T07:58:17;101445.94;;;13.05;nan
25560;BME280;13450;49.374;8.584;2023-05-03T08:00:42;101442.88;;;13.08;nan
25560;BME280;13450;49.374;8.584;2023-05-03T08:03:07;101445.19;;;13.19;nan
25560;BME280;13450;49.374;8.584;2023-05-03T08:05:33;101446.88;;;13.12;nan
25560;BME280;13450;49.374;8.584;2023-05-03T08:08:00;101447.94;;;13.34;nan
25560;BME280;13450;49.374;8.584;2023-05-03T08:10:26;101451.31;;;13.60;nan
25560;BME280;13450;49.374;8.584;2023-05-03T08:12:51;101451.53;;;13.73;nan
25560;BME280;13450;49.374;8.584;2023-05-03T08:15:16;101454.78;;;13.84;nan
25560;BME280;13450;49.374;8.584;2023-05-03T08:17:43;101460.78;;;13.94;nan
25560;BME280;13450;49.374;8.584;2023-05-03T08:20:09;101452.97;;;13.99;nan
25560;BME280;13450;49.374;8.584;2023-05-03T08:22:35;101459.56;;;13.97;nan
25560;BME280;13450;49.374;8.584;2023-05-03T08:25:02;101457.72;;;14.12;nan
25560;BME280;13450;49.374;8.584;2023-05-03T08:27:31;101450.44;;;13.83;nan
25560;BME280;13450;49.374;8.584;2023-05-03T08:29:57;101465.47;;;13.92;nan
25560;BME280;13450;49.374;8.584;2023-05-03T08:32:24;101459.13;;;14.23;nan
25560;BME280;13450;49.374;8.584;2023-05-03T08:34:51;101459.69;;;14.49;nan
25560;BME280;13450;49.374;8.584;2023-05-03T08:37:16;101460.44;;;14.58;nan
25560;BME280;13450;49.374;8.584;2023-05-03T08:39:42;101452.41;;;14.95;nan
25560;BME280;13450;49.374;8.584;2023-05-03T08:42:08;101445.44;;;15.22;nan
25560;BME280;13450;49.374;8.584;2023-05-03T08:44:47;101446.34;;;15.29;nan
25560;BME280;13450;49.374;8.584;2023-05-03T08:47:17;101446.22;;;15.16;nan
25560;BME280;13450;49.374;8.584;2023-05-03T08:49:43;101449.63;;;14.88;nan
25560;BME280;13450;49.374;8.584;2023-05-03T08:52:09;101444.72;;;14.92;nan
25560;BME280;13450;49.374;8.584;2023-05-03T08:54:36;101442.56;;;14.87;nan
25560;BME280;13450;49.374;8.584;2023-05-03T08:57:01;101437.28;;;14.63;nan
25560;BME280;13450;49.374;8.584;2023-05-03T08:59:27;101441.66;;;14.64;nan
25560;BME280;13450;49.374;8.584;2023-05-03T09:01:53;101435.34;;;14.72;nan
25560;BME280;13450;49.374;8.584;2023-05-03T09:04:19;101435.63;;;14.77;nan
25560;BME280;13450;49.374;8.584;2023-05-03T09:06:44;101442.13;;;14.83;nan
25560;BME280;13450;49.374;8.584;2023-05-03T09:09:10;101452.41;;;14.80;nan
25560;BME280;13450;49.374;8.584;2023-05-03T09:11:37;101446.94;;;14.88;nan
25560;BME280;13450;49.374;8.584;2023-05-03T09:14:11;101439.00;;;15.01;nan
25560;BME280;13450;49.374;8.584;2023-05-03T09:16:37;101441.06;;;14.99;nan
25560;BME280;13450;49.374;8.584;2023-05-03T09:19:04;101448.13;;;15.00;nan
25560;BME280;13450;49.374;8.584;2023-05-03T09:21:34;101441.03;;;15.36;nan
25560;BME280;13450;49.374;8.584;2023-05-03T09:23:59;101438.41;;;15.72;nan
25560;BME280;13450;49.374;8.584;2023-05-03T09:26:30;101439.09;;;16.02;nan
25560;BME280;13450;49.374;8.584;2023-05-03T09:29:01;101446.97;;;15.97;nan
25560;BME280;13450;49.374;8.584;2023-05-03T09:31:30;101435.78;;;16.07;nan
25560;BME280;13450;49.374;8.584;2023-05-03T09:33:56;101434.19;;;16.13;nan
25560;BME280;13450;49.374;8.584;2023-05-03T09:36:24;101438.69;;;16.05;nan
25560;BME280;13450;49.374;8.584;2023-05-03T09:38:51;101438.69;;;16.05;nan
25560;BME280;13450;49.374;8.584;2023-05-03T09:41:30;101441.56;;;15.97;nan
25560;BME280;13450;49.374;8.584;2023-05-03T09:43:56;101427.28;;;15.81;nan
25560;BME280;13450;49.374;8.584;2023-05-03T09:46:27;101422.03;;;15.73;nan
25560;BME280;13450;49.374;8.584;2023-05-03T09:48:54;101413.56;;;15.76;nan
25560;BME280;13450;49.374;8.584;2023-05-03T09:51:26;101410.72;;;15.85;nan
25560;BME280;13450;49.374;8.584;2023-05-03T09:53:52;101417.50;;;16.02;nan
25560;BME280;13450;49.374;8.584;2023-05-03T09:56:20;101404.31;;;16.21;nan
25560;BME280;13450;49.374;8.584;2023-05-03T09:58:51;101408.09;;;16.27;nan
25560;BME280;13450;49.374;8.584;2023-05-03T10:01:17;101405.22;;;16.42;nan
25560;BME280;13450;49.374;8.584;2023-05-03T10:03:44;101398.25;;;16.61;nan
25560;BME280;13450;49.374;8.584;2023-05-03T10:06:25;101404.53;;;16.68;nan
25560;BME280;13450;49.374;8.584;2023-05-03T10:11:27;101393.53;;;16.77;nan
25560;BME280;13450;49.374;8.584;2023-05-03T10:13:53;101401.25;;;16.93;nan
25560;BME280;13450;49.374;8.584;2023-05-03T10:16:26;101396.75;;;17.07;nan
25560;BME280;13450;49.374;8.584;2023-05-03T10:21:54;101388.78;;;16.92;nan
25560;BME280;13450;49.374;8.584;2023-05-03T10:24:22;101381.88;;;16.76;nan
25560;BME280;13450;49.374;8.584;2023-05-03T10:26:49;101374.66;;;16.97;nan
25560;BME280;13450;49.374;8.584;2023-05-03T10:32:30;101368.47;;;17.44;nan
25560;BME280;13450;49.374;8.584;2023-05-03T10:35:16;101366.19;;;17.54;nan
25560;BME280;13450;49.374;8.584;2023-05-03T10:37:43;101365.75;;;17.71;nan
25560;BME280;13450;49.374;8.584;2023-05-03T10:40:14;101364.63;;;18.06;nan
25560;BME280;13450;49.374;8.584;2023-05-03T10:42:43;101362.91;;;18.32;nan
25560;BME280;13450;49.374;8.584;2023-05-03T10:45:28;101354.81;;;18.25;nan
25560;BME280;13450;49.374;8.584;2023-05-03T10:48:22;101354.81;;;18.71;nan
25560;BME280;13450;49.374;8.584;2023-05-03T10:50:48;101350.22;;;19.03;nan
25560;BME280;13450;49.374;8.584;2023-05-03T10:56:11;101347.38;;;19.24;nan
25560;BME280;13450;49.374;8.584;2023-05-03T10:58:50;101348.72;;;20.03;nan
25560;BME280;13450;49.374;8.584;2023-05-03T11:01:17;101350.34;;;21.02;nan
25560;BME280;13450;49.374;8.584;2023-05-03T11:03:45;101343.13;;;22.45;nan
25560;BME280;13450;49.374;8.584;2023-05-03T11:06:37;101349.66;;;23.76;nan
25560;BME280;13450;49.374;8.584;2023-05-03T11:09:06;101345.06;;;24.76;nan
25560;BME280;13450;49.374;8.584;2023-05-03T11:11:36;101343.88;;;25.76;nan
25560;BME280;13450;49.374;8.584;2023-05-03T11:14:02;101335.31;;;27.81;nan
25560;BME280;13450;49.374;8.584;2023-05-03T11:16:28;101341.53;;;29.28;nan
25560;BME280;13450;49.374;8.584;2023-05-03T11:18:53;101342.25;;;29.09;nan
25560;BME280;13450;49.374;8.584;2023-05-03T11:21:22;101331.00;;;29.84;nan
25560;BME280;13450;49.374;8.584;2023-05-03T11:23:47;101342.25;;;30.51;nan
25560;BME280;13450;49.374;8.584;2023-05-03T11:26:13;101331.00;;;32.12;nan
25560;BME280;13450;49.374;8.584;2023-05-03T11:28:42;101332.72;;;32.36;nan
25560;BME280;13450;49.374;8.584;2023-05-03T11:31:08;101330.19;;;32.94;nan
25560;BME280;13450;49.374;8.584;2023-05-03T11:33:38;101332.00;;;32.44;nan
25560;BME280;13450;49.374;8.584;2023-05-03T11:36:07;101330.38;;;33.61;nan
25560;BME280;13450;49.374;8.584;2023-05-03T11:38:34;101316.22;;;35.34;nan
25560;BME280;13450;49.374;8.584;2023-05-03T11:41:00;101318.06;;;34.47;nan
25560;BME280;13450;49.374;8.584;2023-05-03T11:43:39;101318.91;;;34.39;nan
25560;BME280;13450;49.374;8.584;2023-05-03T11:46:05;101316.06;;;34.74;nan
25560;BME280;13450;49.374;8.584;2023-05-03T11:48:31;101313.66;;;34.20;nan
25560;BME280;13450;49.374;8.584;2023-05-03T11:50:57;101312.81;;;34.72;nan
25560;BME280;13450;49.374;8.584;2023-05-03T11:53:24;101315.06;;;34.88;nan
25560;BME280;13450;49.374;8.584;2023-05-03T11:55:52;101310.84;;;35.59;nan
25560;BME280;13450;49.374;8.584;2023-05-03T11:58:22;101310.50;;;36.12;nan
25560;BME280;13450;49.374;8.584;2023-05-03T12:00:52;101299.25;;;35.88;nan
25560;BME280;13450;49.374;8.584;2023-05-03T12:03:21;101306.34;;;35.07;nan
25560;BME280;13450;49.374;8.584;2023-05-03T12:05:48;101308.91;;;34.02;nan
25560;BME280;13450;49.374;8.584;2023-05-03T12:08:17;101300.91;;;34.01;nan
25560;BME280;13450;49.374;8.584;2023-05-03T12:10:45;101297.09;;;33.70;nan
25560;BME280;13450;49.374;8.584;2023-05-03T12:13:10;101303.81;;;33.29;nan
25560;BME280;13450;49.374;8.584;2023-05-03T12:15:38;101297.69;;;34.25;nan
25560;BME280;13450;49.374;8.584;2023-05-03T12:18:08;101297.53;;;34.96;nan
25560;BME280;13450;49.374;8.584;2023-05-03T12:20:35;101293.69;;;35.88;nan
25560;BME280;13450;49.374;8.584;2023-05-03T12:23:06;101295.28;;;36.53;nan
25560;BME280;13450;49.374;8.584;2023-05-03T12:25:33;101295.94;;;36.16;nan
25560;BME280;13450;49.374;8.584;2023-05-03T12:28:00;101289.31;;;35.78;nan
25560;BME280;13450;49.374;8.584;2023-05-03T12:30:27;101288.91;;;35.88;nan
25560;BME280;13450;49.374;8.584;2023-05-03T12:32:52;101283.72;;;33.72;nan
25560;BME280;13450;49.374;8.584;2023-05-03T12:35:20;101279.84;;;34.62;nan
25560;BME280;13450;49.374;8.584;2023-05-03T12:37:47;101265.69;;;35.84;nan
25560;BME280;13450;49.374;8.584;2023-05-03T12:40:16;101269.34;;;37.11;nan
25560;BME280;13450;49.374;8.584;2023-05-03T12:42:42;101261.59;;;36.45;nan
25560;BME280;13450;49.374;8.584;2023-05-03T12:45:10;101266.53;;;36.39;nan
25560;BME280;13450;49.374;8.584;2023-05-03T12:47:35;101256.69;;;32.42;nan
25560;BME280;13450;49.374;8.584;2023-05-03T12:50:02;101247.50;;;33.77;nan
25560;BME280;13450;49.374;8.584;2023-05-03T12:52:28;101246.88;;;33.98;nan
25560;BME280;13450;49.374;8.584;2023-05-03T12:54:55;101247.13;;;34.59;nan
25560;BME280;13450;49.374;8.584;2023-05-03T12:57:21;101242.97;;;35.82;nan
25560;BME280;13450;49.374;8.584;2023-05-03T12:59:46;101241.47;;;35.33;nan
25560;BME280;13450;49.374;8.584;2023-05-03T13:02:17;101243.78;;;36.04;nan
25560;BME280;13450;49.374;8.584;2023-05-03T13:04:42;101237.84;;;35.63;nan
25560;BME280;13450;49.374;8.584;2023-05-03T13:07:08;101238.03;;;38.08;nan
25560;BME280;13450;49.374;8.584;2023-05-03T13:09:34;101231.00;;;38.43;nan
25560;BME280;13450;49.374;8.584;2023-05-03T13:11:59;101233.06;;;38.02;nan
25560;BME280;13450;49.374;8.584;2023-05-03T13:14:26;101231.09;;;37.49;nan
25560;BME280;13450;49.374;8.584;2023-05-03T13:16:52;101232.06;;;37.94;nan
25560;BME280;13450;49.374;8.584;2023-05-03T13:19:18;101227.44;;;37.86;nan
25560;BME280;13450;49.374;8.584;2023-05-03T13:21:46;101216.91;;;38.68;nan
25560;BME280;13450;49.374;8.584;2023-05-03T13:24:13;101213.69;;;37.39;nan
25560;BME280;13450;49.374;8.584;2023-05-03T13:26:39;101219.53;;;37.22;nan
25560;BME280;13450;49.374;8.584;2023-05-03T13:29:04;101201.78;;;38.25;nan
25560;BME280;13450;49.374;8.584;2023-05-03T13:31:30;101201.63;;;37.10;nan
25560;BME280;13450;49.374;8.584;2023-05-03T13:33:55;101189.22;;;38.02;nan
25560;BME280;13450;49.374;8.584;2023-05-03T13:36:25;101190.91;;;38.84;nan